createdAt,value
2022-07-25T04:03:43.911Z,17.34
2022-07-25T04:07:56.703Z,17.29
2022-07-25T04:12:09.490Z,17.29
2022-07-25T04:16:22.494Z,17.25
2022-07-25T04:20:37.374Z,17.35
2022-07-25T04:24:48.988Z,17.37
2022-07-25T04:29:03.470Z,17.36
2022-07-25T04:33:15.522Z,17.39
2022-07-25T04:37:27.104Z,17.39
2022-07-25T04:41:38.693Z,17.40
2022-07-25T04:45:50.334Z,17.44
2022-07-25T04:50:01.987Z,17.50
2022-07-25T04:54:13.632Z,17.53
2022-07-25T04:58:25.251Z,17.51
2022-07-25T05:02:37.242Z,17.51
2022-07-25T05:06:48.938Z,17.57
2022-07-25T05:11:00.801Z,17.69
2022-07-25T05:15:12.566Z,17.71
2022-07-25T05:19:24.112Z,17.80
2022-07-25T05:23:35.721Z,17.94
2022-07-25T05:27:47.305Z,18.05
2022-07-25T05:31:59.038Z,18.15
2022-07-25T05:36:10.655Z,18.24
2022-07-25T05:40:22.821Z,18.60
2022-07-25T05:44:34.810Z,22.91
2022-07-25T05:48:46.566Z,27.03
2022-07-25T05:52:58.256Z,30.02
2022-07-25T05:57:09.849Z,30.63
2022-07-25T06:01:21.493Z,32.04
2022-07-25T06:05:33.085Z,32.53
2022-07-25T06:09:44.688Z,33.30
2022-07-25T06:13:56.303Z,34.66
2022-07-25T06:18:07.915Z,34.94
2022-07-25T06:22:22.290Z,35.49
2022-07-25T06:26:33.924Z,34.01
2022-07-25T06:30:45.917Z,34.41
2022-07-25T06:34:57.503Z,34.59
2022-07-25T06:39:09.306Z,35.59
2022-07-25T06:43:20.906Z,35.20
2022-07-25T06:47:35.903Z,33.83
2022-07-25T06:51:47.891Z,33.47
2022-07-25T06:55:59.638Z,32.52
2022-07-25T07:00:13.305Z,31.73
2022-07-25T07:04:24.919Z,31.11
2022-07-25T07:08:37.810Z,30.74
2022-07-25T07:12:50.235Z,31.06
2022-07-25T07:17:01.827Z,31.13
2022-07-25T07:21:21.072Z,31.31
2022-07-25T07:25:33.769Z,31.31
2022-07-25T07:29:45.299Z,31.28
2022-07-25T07:33:58.933Z,31.04
2022-07-25T07:38:10.509Z,31.02
2022-07-25T07:42:22.058Z,30.90
2022-07-25T07:46:33.825Z,30.92
2022-07-25T07:50:45.689Z,30.82
2022-07-25T07:55:15.764Z,30.65
2022-07-25T07:59:27.297Z,30.62
2022-07-25T08:03:38.872Z,30.54
2022-07-25T08:07:51.944Z,30.76
2022-07-25T08:12:03.732Z,30.87
2022-07-25T08:16:15.498Z,31.09
2022-07-25T08:20:37.862Z,31.27
2022-07-25T08:24:50.184Z,31.47
2022-07-25T08:29:18.223Z,31.51
2022-07-25T08:33:31.696Z,31.29
2022-07-25T08:37:43.764Z,31.31
2022-07-25T08:41:55.814Z,31.22
2022-07-25T08:46:08.219Z,31.10
2022-07-25T08:50:22.756Z,30.57
2022-07-25T08:54:35.243Z,30.46
2022-07-25T08:58:47.183Z,30.60
2022-07-25T09:03:02.975Z,30.66
2022-07-25T09:07:14.610Z,30.55
2022-07-25T09:11:37.533Z,30.81
2022-07-25T09:15:54.231Z,31.06
2022-07-25T09:20:08.876Z,31.28
2022-07-25T09:24:22.421Z,31.52
2022-07-25T09:28:45.585Z,31.76
2022-07-25T09:33:01.761Z,32.01
2022-07-25T09:37:15.649Z,32.14
2022-07-25T09:41:35.402Z,31.83
2022-07-25T09:45:51.719Z,31.83
2022-07-25T09:50:04.890Z,31.79
2022-07-25T09:54:17.278Z,31.77
2022-07-25T09:58:29.943Z,31.62
2022-07-25T10:03:12.453Z,31.76
2022-07-25T10:07:29.443Z,31.78
2022-07-25T10:12:04.121Z,31.64
2022-07-25T10:16:23.811Z,31.41
2022-07-25T10:20:35.989Z,31.02
2022-07-25T10:24:48.193Z,31.16
2022-07-25T10:28:59.942Z,31.67
2022-07-25T10:33:17.841Z,31.97
2022-07-25T10:37:29.514Z,32.23
2022-07-25T10:41:43.147Z,32.17
2022-07-25T10:45:57.982Z,32.39
2022-07-25T10:50:25.555Z,32.63
2022-07-25T10:54:54.481Z,32.80
2022-07-25T10:59:06.254Z,32.86
2022-07-25T11:03:18.809Z,32.86
2022-07-25T11:07:35.975Z,32.65
2022-07-25T11:11:49.413Z,32.19
2022-07-25T11:16:01.154Z,32.01
2022-07-25T11:20:16.592Z,31.68
2022-07-25T11:24:38.085Z,31.23
2022-07-25T11:28:50.654Z,30.94
2022-07-25T11:33:02.251Z,31.01
2022-07-25T11:37:15.877Z,31.06
2022-07-25T11:41:30.681Z,31.33
2022-07-25T11:45:43.854Z,31.67
2022-07-25T11:50:00.814Z,32.16
2022-07-25T11:54:13.292Z,32.22
2022-07-25T11:58:25.413Z,31.95
2022-07-25T12:02:37.482Z,31.91
2022-07-25T12:06:51.009Z,32.29
2022-07-25T12:11:02.589Z,32.73
2022-07-25T12:15:15.451Z,33.01
2022-07-25T12:19:27.021Z,33.40
2022-07-25T12:23:42.118Z,33.34
2022-07-25T12:27:53.735Z,33.00
2022-07-25T12:32:05.618Z,32.54
2022-07-25T12:36:17.157Z,32.09
2022-07-25T12:40:28.815Z,32.09
2022-07-25T12:44:40.438Z,32.24
2022-07-25T12:48:52.072Z,32.46
2022-07-25T12:53:04.452Z,32.59
2022-07-25T12:57:16.169Z,32.90
2022-07-25T13:01:27.768Z,33.26
2022-07-25T13:05:39.649Z,33.60
2022-07-25T13:09:51.178Z,33.50
2022-07-25T13:14:02.828Z,33.11
2022-07-25T13:18:14.513Z,33.17
2022-07-25T13:22:27.318Z,33.26
2022-07-25T13:26:39.355Z,33.64
2022-07-25T13:30:51.101Z,33.74
2022-07-25T13:35:03.772Z,33.48
2022-07-25T13:39:15.453Z,32.92
2022-07-25T13:43:27.021Z,33.11
2022-07-25T13:47:38.668Z,33.22
2022-07-25T13:51:50.311Z,33.01
2022-07-25T13:56:01.904Z,33.01
2022-07-25T14:00:13.625Z,32.86
2022-07-25T14:04:25.234Z,32.31
2022-07-25T14:08:39.119Z,31.76
2022-07-25T14:12:50.725Z,31.93
2022-07-25T14:17:02.743Z,31.91
2022-07-25T14:21:14.369Z,31.63
2022-07-25T14:25:25.906Z,31.60
2022-07-25T14:29:38.090Z,31.77
2022-07-25T14:33:49.641Z,31.61
2022-07-25T14:38:01.756Z,31.63
2022-07-25T14:42:13.757Z,31.58
2022-07-25T14:46:25.695Z,31.46
2022-07-25T14:50:37.277Z,31.32
2022-07-25T14:54:48.828Z,31.12
2022-07-25T14:59:00.361Z,31.17
2022-07-25T15:03:12.001Z,30.78
2022-07-25T15:07:23.579Z,30.74
2022-07-25T15:11:35.118Z,30.85
2022-07-25T15:15:46.907Z,31.10
2022-07-25T15:19:58.449Z,30.97
2022-07-25T15:24:09.985Z,30.90
2022-07-25T15:28:21.727Z,30.95
2022-07-25T15:32:33.306Z,30.56
2022-07-25T15:36:44.848Z,29.99
2022-07-25T15:40:57.196Z,29.89
2022-07-25T15:45:32.163Z,30.11
2022-07-25T15:49:40.577Z,30.30
2022-07-25T15:53:52.133Z,30.32
2022-07-25T15:58:04.401Z,30.51
2022-07-25T16:02:15.950Z,30.28
2022-07-25T16:06:27.798Z,30.40
2022-07-25T16:10:39.390Z,30.32
2022-07-25T16:14:52.113Z,30.41
2022-07-25T16:19:04.276Z,30.39
2022-07-25T16:23:15.969Z,30.17
2022-07-25T16:27:28.413Z,30.12
2022-07-25T16:31:40.098Z,30.08
2022-07-25T16:35:51.745Z,29.88
2022-07-25T16:40:05.153Z,29.64
2022-07-25T16:44:16.713Z,29.57
2022-07-25T16:48:28.560Z,29.71
2022-07-25T16:52:40.155Z,29.56
2022-07-25T16:56:54.218Z,29.54
2022-07-25T17:01:07.237Z,29.43
2022-07-25T17:05:18.915Z,29.39
2022-07-25T17:09:30.884Z,29.48
2022-07-25T17:13:42.421Z,29.25
2022-07-25T17:17:53.974Z,29.08
2022-07-25T17:22:06.539Z,28.81
2022-07-25T17:26:18.081Z,28.79
2022-07-25T17:30:29.662Z,28.74
2022-07-25T17:34:41.302Z,28.46
2022-07-25T17:38:52.937Z,28.64
2022-07-25T17:43:04.502Z,28.35
2022-07-25T17:47:16.098Z,28.12
2022-07-25T17:51:27.722Z,28.00
2022-07-25T17:55:42.210Z,27.89
2022-07-25T17:59:56.783Z,27.78
2022-07-25T18:04:09.198Z,27.53
2022-07-25T18:08:21.808Z,27.30
2022-07-25T18:12:33.371Z,27.12
2022-07-25T18:16:45.517Z,27.01
2022-07-25T18:20:57.514Z,26.88
2022-07-25T18:25:11.686Z,26.71
2022-07-25T18:29:23.278Z,26.69
2022-07-25T18:33:34.821Z,26.63
2022-07-25T18:37:46.524Z,26.47
2022-07-25T18:41:58.110Z,26.47
2022-07-25T18:46:10.922Z,26.29
2022-07-25T18:50:25.798Z,26.20
2022-07-25T18:54:37.394Z,26.10
2022-07-25T18:58:49.651Z,26.06
2022-07-25T19:03:01.419Z,26.01
2022-07-25T19:07:13.287Z,25.99
2022-07-25T19:11:25.991Z,25.86
2022-07-25T19:15:37.591Z,25.68
2022-07-25T19:19:49.577Z,25.68
2022-07-25T19:24:01.120Z,25.68
2022-07-25T19:28:12.686Z,25.62
2022-07-25T19:32:24.220Z,25.56
2022-07-25T19:36:35.821Z,25.46
2022-07-25T19:40:47.373Z,25.38
2022-07-25T19:44:59.252Z,25.34
2022-07-25T19:49:10.895Z,25.39
2022-07-25T19:53:28.088Z,25.27
2022-07-25T19:57:40.080Z,25.19
2022-07-25T20:01:52.080Z,25.11
2022-07-25T20:12:03.315Z,25.11
2022-07-25T20:16:15.209Z,24.97
2022-07-25T20:20:26.878Z,24.94
2022-07-25T20:24:38.643Z,24.95
2022-07-25T20:28:50.339Z,24.93
2022-07-25T20:33:05.348Z,24.92
2022-07-25T20:37:20.679Z,24.87
2022-07-25T20:41:32.364Z,24.83
2022-07-25T20:45:44.231Z,24.76
2022-07-25T20:49:55.889Z,24.75
2022-07-25T20:54:07.797Z,24.73
2022-07-25T20:58:19.479Z,24.71
2022-07-25T21:02:31.083Z,24.68
2022-07-25T21:06:42.752Z,24.63
2022-07-25T21:10:58.760Z,24.56
2022-07-25T21:15:10.807Z,24.52
2022-07-25T21:19:22.390Z,24.51
2022-07-25T21:23:34.014Z,24.44
2022-07-25T21:27:46.264Z,24.36
